Time;durP1;ratioP1;P1;durP2;ratioP2;P2;SDS_P1;SDS_P2;PMS_P1;PMS_P2;Temp;Humidity;BMP_temperature;BMP_pressure;BME280_temperature;BME280_humidity;BME280_pressure;Samples;Min_cycle;Max_cycle;Signal;HPM_P1;HPM_P2
2023/09/18 00:00:42;;;;;;;8.43;5.28;;;;;;;19.07;100.00;100392.03;5002592;28;20032;-71
2023/09/18 00:03:08;;;;;;;11.48;5.18;;;;;;;19.04;100.00;100381.94;4986569;28;20030;-71
2023/09/18 00:05:34;;;;;;;14.13;5.13;;;;;;;19.02;100.00;100376.94;5023581;28;20083;-72
2023/09/18 00:08:01;;;;;;;9.02;4.47;;;;;;;19.01;100.00;100375.31;5004358;28;20125;-71
2023/09/18 00:10:28;;;;;;;5.60;4.55;;;;;;;19.00;100.00;100363.19;5020918;28;20076;-71
2023/09/18 00:12:54;;;;;;;9.18;5.40;;;;;;;19.01;100.00;100364.03;4996572;28;20045;-72
2023/09/18 00:15:20;;;;;;;8.00;5.47;;;;;;;19.00;100.00;100352.69;4998315;28;20043;-71
2023/09/18 00:17:45;;;;;;;8.85;5.32;;;;;;;18.99;100.00;100350.31;5019217;28;20422;-72
2023/09/18 00:20:11;;;;;;;10.20;5.50;;;;;;;18.97;100.00;100345.28;5000747;28;20034;-72
2023/09/18 00:22:37;;;;;;;9.23;5.20;;;;;;;18.95;100.00;100336.00;4999405;28;20514;-72
2023/09/18 00:25:03;;;;;;;8.65;4.70;;;;;;;18.90;100.00;100328.78;5000609;28;20037;-72
2023/09/18 00:27:29;;;;;;;11.55;4.90;;;;;;;18.89;100.00;100327.19;5000167;28;20084;-72
2023/09/18 00:29:54;;;;;;;10.60;5.57;;;;;;;18.88;100.00;100328.22;5002044;28;20041;-72
2023/09/18 00:32:20;;;;;;;11.13;6.03;;;;;;;18.85;100.00;100326.03;5015833;28;20045;-72
2023/09/18 00:34:45;;;;;;;10.48;5.43;;;;;;;18.82;100.00;100313.34;4998727;28;20514;-72
2023/09/18 00:37:12;;;;;;;9.52;5.80;;;;;;;18.80;100.00;100304.88;5001107;28;20087;-72
2023/09/18 00:39:38;;;;;;;10.45;5.93;;;;;;;18.81;100.00;100303.84;5002255;28;20029;-72
2023/09/18 00:42:04;;;;;;;8.10;5.80;;;;;;;18.82;100.00;100301.00;5006637;28;20136;-72
2023/09/18 00:44:29;;;;;;;10.07;5.78;;;;;;;18.82;100.00;100298.38;5003927;28;20113;-72
2023/09/18 00:46:55;;;;;;;11.75;6.15;;;;;;;18.82;100.00;100292.34;4989989;28;20063;-72
2023/09/18 00:49:22;;;;;;;14.70;6.53;;;;;;;18.82;100.00;100295.75;5002740;28;20167;-71
2023/09/18 00:51:48;;;;;;;8.93;6.00;;;;;;;18.79;100.00;100298.78;4991006;28;20524;-72
2023/09/18 00:54:18;;;;;;;10.48;6.63;;;;;;;18.83;100.00;100292.09;4991462;28;20046;-71
2023/09/18 00:56:45;;;;;;;13.23;6.47;;;;;;;18.84;100.00;100285.03;5002388;28;20205;-71
2023/09/18 00:59:11;;;;;;;9.02;5.97;;;;;;;18.82;100.00;100287.09;5007472;28;20046;-71
2023/09/18 01:01:40;;;;;;;13.40;6.22;;;;;;;18.80;100.00;100289.09;4999364;28;20040;-71
2023/09/18 01:04:05;;;;;;;9.63;6.30;;;;;;;18.77;100.00;100284.28;5001110;28;20038;-71
2023/09/18 01:06:31;;;;;;;10.82;6.05;;;;;;;18.76;100.00;100278.25;5017604;28;20034;-71
2023/09/18 01:08:56;;;;;;;12.48;5.88;;;;;;;18.77;100.00;100279.03;5001705;28;20767;-72
2023/09/18 01:12:00;;;;;;;11.48;6.53;;;;;;;18.79;100.00;100287.50;5001212;28;20029;-72
2023/09/18 01:14:30;;;;;;;11.30;6.63;;;;;;;18.75;100.00;100281.09;5001080;28;20388;-72
2023/09/18 01:16:59;;;;;;;11.73;6.47;;;;;;;18.74;100.00;100287.34;4997664;28;20061;-72
2023/09/18 01:19:39;;;;;;;12.35;6.32;;;;;;;18.73;100.00;100278.69;5003555;28;20044;-72
2023/09/18 01:22:09;;;;;;;11.02;6.95;;;;;;;18.73;100.00;100289.19;5019856;28;20403;-71
2023/09/18 01:24:36;;;;;;;11.95;6.95;;;;;;;18.82;100.00;100285.25;5001512;28;20041;-71
2023/09/18 01:27:04;;;;;;;11.82;7.40;;;;;;;18.78;100.00;100278.81;5018896;28;20046;-72
2023/09/18 01:29:29;;;;;;;10.05;6.30;;;;;;;18.73;100.00;100267.38;4997547;28;20061;-72
2023/09/18 01:31:55;;;;;;;11.45;6.20;;;;;;;18.71;100.00;100262.34;4986227;28;20080;-72
2023/09/18 01:34:25;;;;;;;11.38;6.55;;;;;;;18.68;100.00;100247.84;5002253;28;20025;-72
2023/09/18 01:36:51;;;;;;;12.88;6.15;;;;;;;18.66;100.00;100249.88;5000864;28;20026;-72
2023/09/18 01:39:19;;;;;;;11.48;7.35;;;;;;;18.72;100.00;100252.63;4985538;28;20048;-72
2023/09/18 01:41:45;;;;;;;13.63;7.22;;;;;;;18.79;100.00;100253.34;5001300;28;20591;-71
2023/09/18 01:44:11;;;;;;;11.15;7.43;;;;;;;18.76;100.00;100251.97;5001071;28;20038;-71
2023/09/18 01:46:37;;;;;;;10.95;6.32;;;;;;;18.74;100.00;100248.78;5001035;28;20049;-71
2023/09/18 01:49:03;;;;;;;15.98;7.70;;;;;;;18.84;100.00;100240.38;5014646;28;20038;-71
2023/09/18 01:51:29;;;;;;;16.80;7.60;;;;;;;18.88;100.00;100244.16;5003653;28;20506;-71
2023/09/18 01:53:55;;;;;;;12.50;6.75;;;;;;;18.85;100.00;100242.81;4999640;28;20555;-71
2023/09/18 01:56:21;;;;;;;10.80;6.50;;;;;;;18.82;100.00;100235.34;5000392;28;20132;-71
2023/09/18 01:58:46;;;;;;;11.35;6.82;;;;;;;18.81;100.00;100225.88;5001984;28;20166;-71
2023/09/18 02:01:12;;;;;;;10.13;6.35;;;;;;;18.80;100.00;100226.91;4988236;28;20041;-72
2023/09/18 02:03:41;;;;;;;10.45;6.97;;;;;;;18.78;100.00;100223.66;4989518;28;20542;-71
2023/09/18 02:06:08;;;;;;;9.95;6.50;;;;;;;18.78;100.00;100221.03;4990829;28;20049;-71
2023/09/18 02:08:34;;;;;;;12.02;6.45;;;;;;;18.79;100.00;100216.59;5001033;28;20524;-71
2023/09/18 02:11:00;;;;;;;9.93;6.50;;;;;;;18.79;100.00;100222.63;5000486;28;20438;-71
2023/09/18 02:13:25;;;;;;;10.65;6.50;;;;;;;18.80;100.00;100221.66;4997587;28;20037;-71
2023/09/18 02:15:51;;;;;;;12.10;6.88;;;;;;;18.80;100.00;100213.78;5001305;28;20518;-71
2023/09/18 02:18:17;;;;;;;9.88;6.80;;;;;;;18.82;100.00;100209.09;5004843;28;20045;-71
2023/09/18 02:20:47;;;;;;;16.45;6.97;;;;;;;18.84;100.00;100198.38;4987166;28;20049;-71
2023/09/18 02:23:12;;;;;;;11.80;7.60;;;;;;;18.84;100.00;100196.53;5017535;28;20034;-70
2023/09/18 02:25:40;;;;;;;10.60;7.28;;;;;;;18.94;100.00;100188.09;5000044;28;20412;-70
2023/09/18 02:28:06;;;;;;;10.90;6.55;;;;;;;18.91;100.00;100172.81;5017603;28;20052;-70
2023/09/18 02:30:31;;;;;;;13.52;8.40;;;;;;;19.11;100.00;100167.22;5020337;28;20148;-70
2023/09/18 02:32:57;;;;;;;13.02;6.70;;;;;;;19.15;100.00;100165.72;5005529;28;20045;-70
2023/09/18 02:35:22;;;;;;;17.50;8.15;;;;;;;19.05;100.00;100150.53;5002035;28;20107;-70
2023/09/18 02:37:48;;;;;;;14.98;7.43;;;;;;;19.16;100.00;100150.78;5002465;28;20098;-70
2023/09/18 02:40:13;;;;;;;11.07;7.40;;;;;;;19.25;100.00;100147.59;5001283;28;20058;-70
2023/09/18 02:42:39;;;;;;;15.82;7.63;;;;;;;19.30;100.00;100172.38;5000630;28;20072;-70
2023/09/18 02:45:05;;;;;;;16.75;8.00;;;;;;;19.29;100.00;100155.00;4999691;28;20037;-70
2023/09/18 02:47:31;;;;;;;13.90;7.40;;;;;;;19.24;100.00;100145.97;5002184;28;20029;-70
2023/09/18 02:49:56;;;;;;;15.25;8.38;;;;;;;19.19;100.00;100153.75;5015724;28;20034;-70
2023/09/18 02:52:21;;;;;;;23.77;8.43;;;;;;;19.27;100.00;100144.72;4985376;28;20041;-70
2023/09/18 02:54:47;;;;;;;18.77;8.73;;;;;;;19.23;100.00;100140.94;5002295;28;20037;-70
2023/09/18 02:57:13;;;;;;;22.85;8.77;;;;;;;19.17;100.00;100131.34;5002132;28;20096;-70
2023/09/18 02:59:39;;;;;;;20.80;8.48;;;;;;;19.12;100.00;100123.34;5001245;28;20045;-70
2023/09/18 03:02:05;;;;;;;15.70;7.65;;;;;;;19.23;100.00;100123.34;5021350;28;20560;-70
2023/09/18 03:04:31;;;;;;;16.10;8.18;;;;;;;19.30;100.00;100119.81;5001168;28;20038;-70
2023/09/18 03:06:57;;;;;;;17.40;7.50;;;;;;;19.36;100.00;100119.66;4992331;28;20048;-70
2023/09/18 03:09:23;;;;;;;15.45;7.80;;;;;;;19.31;100.00;100108.25;5006297;28;20059;-70
2023/09/18 03:11:49;;;;;;;14.30;8.32;;;;;;;19.31;100.00;100116.13;5016968;28;20037;-70
2023/09/18 03:14:14;;;;;;;17.15;8.18;;;;;;;19.22;100.00;100108.59;5002676;28;20041;-71
2023/09/18 03:16:40;;;;;;;19.73;7.93;;;;;;;19.20;100.00;100113.28;4993171;28;20483;-72
2023/09/18 03:19:05;;;;;;;15.05;8.65;;;;;;;19.20;100.00;100107.25;5003237;28;20033;-72
2023/09/18 03:21:35;;;;;;;15.18;8.60;;;;;;;19.25;100.00;100089.75;5003933;28;20913;-72
2023/09/18 03:24:01;;;;;;;17.05;7.95;;;;;;;19.15;100.00;100086.09;4989008;28;20037;-72
2023/09/18 03:26:27;;;;;;;15.27;7.78;;;;;;;19.07;100.00;100089.88;5003166;28;20040;-72
2023/09/18 03:28:53;;;;;;;18.52;7.80;;;;;;;19.06;100.00;100090.91;5003487;28;20060;-72
2023/09/18 03:31:18;;;;;;;18.42;7.63;;;;;;;19.05;100.00;100087.47;5004731;28;20688;-72
2023/09/18 03:33:44;;;;;;;14.55;7.70;;;;;;;19.00;100.00;100078.69;4990464;28;20052;-72
2023/09/18 03:36:11;;;;;;;17.35;8.05;;;;;;;18.99;100.00;100070.00;4998104;23;20046;-69
2023/09/18 03:38:37;;;;;;;16.60;7.18;;;;;;;18.99;100.00;100066.59;4999778;28;20143;-69
2023/09/18 03:41:03;;;;;;;18.67;8.05;;;;;;;19.09;100.00;100055.50;5004622;28;20447;-69
2023/09/18 03:43:28;;;;;;;19.42;8.55;;;;;;;19.12;100.00;100055.03;5004279;28;20041;-69
2023/09/18 03:45:54;;;;;;;21.33;7.95;;;;;;;19.03;100.00;100052.75;4984208;28;20100;-69
2023/09/18 03:48:21;;;;;;;14.57;7.05;;;;;;;18.96;100.00;100035.53;4985987;28;20038;-69
2023/09/18 03:50:47;;;;;;;14.80;7.63;;;;;;;18.91;100.00;100032.78;4987115;28;20038;-69
2023/09/18 03:53:13;;;;;;;11.40;6.75;;;;;;;18.89;100.00;100021.72;4984720;28;20137;-69
2023/09/18 03:55:38;;;;;;;15.82;7.10;;;;;;;18.88;100.00;100020.91;4986729;28;20034;-69
2023/09/18 03:58:05;;;;;;;12.15;6.43;;;;;;;18.88;100.00;100013.03;5000989;28;20038;-69
2023/09/18 04:00:30;;;;;;;13.15;6.38;;;;;;;18.87;100.00;100011.44;4989137;28;20046;-69
2023/09/18 04:02:56;;;;;;;14.77;7.53;;;;;;;18.89;100.00;100029.59;4975096;28;20089;-68
2023/09/18 04:05:21;;;;;;;17.98;9.13;;;;;;;19.05;100.00;100065.66;4988985;28;20042;-69
2023/09/18 04:07:47;;;;;;;18.02;8.15;;;;;;;19.00;100.00;100074.22;5005558;28;20034;-70
2023/09/18 04:10:22;;;;;;;11.35;7.03;;;;;;;18.91;100.00;100090.56;4989387;28;20065;-68
2023/09/18 04:12:50;;;;;;;15.45;7.70;;;;;;;18.87;100.00;100113.84;5000056;28;20037;-69
2023/09/18 04:15:18;;;;;;;14.82;6.68;;;;;;;18.84;100.00;100117.75;4989065;28;20034;-69
2023/09/18 04:17:44;;;;;;;17.45;6.53;;;;;;;18.80;100.00;100113.97;4991332;28;20031;-69
2023/09/18 04:20:10;;;;;;;17.13;6.43;;;;;;;18.82;100.00;100108.50;4987021;28;20125;-69
2023/09/18 04:22:43;;;;;;;16.65;6.25;;;;;;;18.80;100.00;100094.78;4987426;28;20042;-69
2023/09/18 04:25:08;;;;;;;16.27;6.00;;;;;;;18.80;100.00;100069.34;5002095;28;20041;-69
2023/09/18 04:27:34;;;;;;;17.70;6.38;;;;;;;18.79;100.00;100082.66;4982677;28;20469;-69
2023/09/18 04:30:00;;;;;;;14.43;5.85;;;;;;;18.82;100.00;100101.41;4989468;28;20038;-69
2023/09/18 04:32:30;;;;;;;16.65;5.60;;;;;;;18.79;100.00;100096.56;4986923;28;20124;-69
2023/09/18 04:34:56;;;;;;;18.45;5.90;;;;;;;18.75;100.00;100095.44;4983831;28;20120;-69
2023/09/18 04:37:21;;;;;;;11.38;5.15;;;;;;;18.73;100.00;100092.25;4985442;28;20042;-69
2023/09/18 04:39:47;;;;;;;16.67;5.47;;;;;;;18.78;100.00;100071.34;4983060;28;20046;-69
2023/09/18 04:42:13;;;;;;;10.45;4.93;;;;;;;18.75;100.00;100069.19;4997810;28;20050;-69
2023/09/18 04:44:38;;;;;;;9.50;4.80;;;;;;;18.73;100.00;100062.56;5000062;28;20741;-69
2023/09/18 04:47:04;;;;;;;19.65;5.43;;;;;;;18.72;100.00;100051.25;4995793;28;20037;-69
2023/09/18 04:49:30;;;;;;;8.02;4.32;;;;;;;18.70;100.00;100053.28;4986658;28;20395;-69
2023/09/18 04:51:56;;;;;;;13.85;5.43;;;;;;;18.72;100.00;100047.81;4990172;28;20384;-69
2023/09/18 04:54:22;;;;;;;12.10;4.82;;;;;;;18.66;100.00;100044.28;4983912;28;20946;-69
2023/09/18 04:56:48;;;;;;;11.05;4.50;;;;;;;18.66;100.00;100055.56;4984739;28;20085;-69
2023/09/18 04:59:14;;;;;;;9.05;4.50;;;;;;;18.65;100.00;100071.56;5004252;28;20039;-68
2023/09/18 05:01:42;;;;;;;13.52;4.47;;;;;;;18.62;100.00;100072.03;5005982;28;20440;-68
2023/09/18 05:04:08;;;;;;;11.35;3.72;;;;;;;18.60;100.00;100071.44;4984086;28;20069;-68
2023/09/18 05:06:33;;;;;;;10.95;4.88;;;;;;;18.57;100.00;100064.00;5005840;28;20481;-69
2023/09/18 05:08:59;;;;;;;9.70;3.88;;;;;;;18.59;100.00;100051.47;4987401;28;20042;-69
2023/09/18 05:11:24;;;;;;;12.05;3.92;;;;;;;18.59;100.00;100064.59;4988988;28;20493;-68
2023/09/18 05:13:50;;;;;;;9.07;3.00;;;;;;;18.57;100.00;100066.63;4990567;28;20044;-69
2023/09/18 05:16:16;;;;;;;11.98;3.45;;;;;;;18.58;100.00;100068.25;4985711;28;20556;-68
2023/09/18 05:18:41;;;;;;;5.97;3.60;;;;;;;18.54;100.00;100075.00;4987472;28;20027;-69
2023/09/18 05:21:09;;;;;;;8.70;3.55;;;;;;;18.52;100.00;100071.78;4989063;28;20544;-69
2023/09/18 05:23:36;;;;;;;6.50;3.22;;;;;;;18.53;100.00;100083.88;4985920;28;20046;-69
2023/09/18 05:26:01;;;;;;;8.98;3.22;;;;;;;18.49;100.00;100081.69;4988647;28;20081;-68
2023/09/18 05:28:27;;;;;;;11.13;3.20;;;;;;;18.48;100.00;100079.31;4987118;28;20034;-69
2023/09/18 05:30:53;;;;;;;14.18;3.47;;;;;;;18.47;100.00;100082.94;4985609;28;20398;-68
2023/09/18 05:33:19;;;;;;;8.80;3.20;;;;;;;18.51;100.00;100080.69;4984436;28;20053;-69
2023/09/18 05:35:45;;;;;;;10.70;3.55;;;;;;;18.54;100.00;100096.00;4986967;28;20045;-69
2023/09/18 05:38:13;;;;;;;8.38;3.22;;;;;;;18.51;100.00;100110.34;4988154;28;20034;-69
2023/09/18 05:40:39;;;;;;;10.75;3.63;;;;;;;18.55;100.00;100095.75;4989682;28;20348;-69
2023/09/18 05:43:05;;;;;;;8.30;3.03;;;;;;;18.54;100.00;100109.13;4984362;28;20062;-69
2023/09/18 05:45:32;;;;;;;8.77;2.78;;;;;;;18.52;100.00;100121.66;4986909;28;20062;-69
2023/09/18 05:48:04;;;;;;;11.32;2.78;;;;;;;18.48;100.00;100132.59;4984396;28;20034;-69
2023/09/18 05:50:31;;;;;;;7.93;2.65;;;;;;;18.52;100.00;100125.09;4984236;28;20031;-69
2023/09/18 05:53:03;;;;;;;11.43;2.92;;;;;;;18.49;100.00;100118.44;4983815;28;20074;-69
2023/09/18 05:55:30;;;;;;;8.70;2.80;;;;;;;18.53;100.00;100110.13;4987739;28;20039;-69
2023/09/18 05:57:57;;;;;;;15.07;3.30;;;;;;;18.51;100.00;100099.06;4986856;28;20046;-68
2023/09/18 06:00:23;;;;;;;8.88;2.80;;;;;;;18.56;100.00;100088.69;4983694;28;20066;-69
2023/09/18 06:02:50;;;;;;;6.05;2.42;;;;;;;18.61;100.00;100089.59;4982964;28;20042;-68
2023/09/18 06:05:17;;;;;;;10.25;3.10;;;;;;;18.76;100.00;100114.59;5002206;28;20038;-69
2023/09/18 06:07:44;;;;;;;5.97;2.95;;;;;;;18.69;100.00;100101.59;5000529;28;20049;-69
2023/09/18 06:10:10;;;;;;;9.82;2.85;;;;;;;18.72;100.00;100087.22;4986240;28;20040;-69
2023/09/18 06:12:38;;;;;;;5.80;2.30;;;;;;;18.72;100.00;100095.09;4985264;28;20489;-69
2023/09/18 06:15:05;;;;;;;8.57;2.47;;;;;;;18.71;100.00;100094.28;5002695;28;20038;-70
2023/09/18 06:17:31;;;;;;;7.53;2.35;;;;;;;18.75;100.00;100103.31;4988466;28;20516;-69
2023/09/18 06:19:56;;;;;;;4.07;2.22;;;;;;;18.73;100.00;100115.88;4987108;28;20046;-69
2023/09/18 06:22:22;;;;;;;7.05;2.20;;;;;;;18.77;100.00;100121.47;4983450;28;20045;-69
2023/09/18 06:24:47;;;;;;;7.63;2.00;;;;;;;18.90;100.00;100131.00;4985036;28;20090;-68
2023/09/18 06:27:12;;;;;;;5.70;1.83;;;;;;;18.82;100.00;100130.31;4982451;28;20405;-69
2023/09/18 06:29:39;;;;;;;4.90;1.67;;;;;;;18.81;100.00;100126.06;4988902;28;20129;-69
2023/09/18 06:32:05;;;;;;;7.55;1.88;;;;;;;18.85;100.00;100127.22;4986813;28;20406;-68
2023/09/18 06:34:31;;;;;;;8.35;1.90;;;;;;;18.91;100.00;100122.91;4987088;28;20373;-69
2023/09/18 06:36:57;;;;;;;6.07;1.83;;;;;;;19.06;100.00;100122.44;4991209;28;20088;-69
2023/09/18 06:39:23;;;;;;;7.85;1.63;;;;;;;19.00;100.00;100131.22;4988339;28;20511;-69
2023/09/18 06:41:49;;;;;;;5.55;1.55;;;;;;;19.10;100.00;100135.91;4991002;28;20589;-69
2023/09/18 06:44:15;;;;;;;6.50;1.92;;;;;;;19.05;100.00;100140.03;5002555;28;20049;-68
2023/09/18 06:46:41;;;;;;;5.97;2.15;;;;;;;19.08;100.00;100141.41;4989281;28;20053;-69
2023/09/18 06:49:06;;;;;;;6.30;1.75;;;;;;;19.11;100.00;100148.03;4989254;28;20053;-68
2023/09/18 06:51:32;;;;;;;8.50;2.00;;;;;;;19.19;100.00;100134.53;4988873;28;20030;-68
2023/09/18 06:53:57;;;;;;;6.93;1.80;;;;;;;19.16;100.00;100135.81;5005616;28;20053;-68
2023/09/18 06:56:24;;;;;;;8.75;2.20;;;;;;;19.21;100.00;100149.06;4987608;28;20069;-69
2023/09/18 06:58:51;;;;;;;9.82;1.80;;;;;;;19.28;100.00;100145.53;4990000;28;20121;-69
2023/09/18 07:01:19;;;;;;;7.30;1.90;;;;;;;19.41;100.00;100156.59;4989578;28;20175;-69
2023/09/18 07:03:48;;;;;;;2.80;1.40;;;;;;;19.36;100.00;100150.41;4987501;28;20038;-68
2023/09/18 07:06:15;;;;;;;5.72;1.80;;;;;;;19.37;100.00;100147.56;4988897;28;20044;-69
2023/09/18 07:08:43;;;;;;;4.75;1.60;;;;;;;19.38;100.00;100146.56;4990341;28;20042;-68
2023/09/18 07:11:08;;;;;;;10.15;1.98;;;;;;;19.38;100.00;100141.28;4991338;28;20030;-69
2023/09/18 07:13:34;;;;;;;6.60;1.88;;;;;;;19.39;100.00;100160.50;4992675;28;20527;-68
2023/09/18 07:15:59;;;;;;;7.53;1.73;;;;;;;19.31;100.00;100168.69;4991923;28;20045;-68
2023/09/18 07:18:25;;;;;;;7.40;2.13;;;;;;;19.37;100.00;100158.09;5001959;28;20030;-69
2023/09/18 07:20:50;;;;;;;6.53;1.90;;;;;;;19.34;100.00;100163.00;5006051;28;20404;-68
2023/09/18 07:23:16;;;;;;;11.38;1.30;;;;;;;19.36;100.00;100158.31;5003755;28;20423;-68
2023/09/18 07:25:43;;;;;;;7.57;1.88;;;;;;;19.41;100.00;100163.69;5002995;28;20077;-68
2023/09/18 07:28:09;;;;;;;5.47;1.65;;;;;;;19.39;100.00;100168.38;4989382;28;20093;-68
2023/09/18 07:30:37;;;;;;;7.32;1.33;;;;;;;19.46;100.00;100155.91;5004465;28;20815;-69
2023/09/18 07:33:03;;;;;;;8.95;1.42;;;;;;;19.49;100.00;100155.44;4990133;28;20034;-68
2023/09/18 07:35:28;;;;;;;4.25;1.63;;;;;;;19.43;100.00;100172.94;5004933;28;20469;-69
2023/09/18 07:37:54;;;;;;;7.95;1.40;;;;;;;19.58;100.00;100172.47;4989229;28;20044;-68
2023/09/18 07:40:19;;;;;;;5.88;2.30;;;;;;;19.48;100.00;100171.44;4987724;28;20054;-68
2023/09/18 07:42:45;;;;;;;4.97;1.70;;;;;;;19.43;100.00;100177.38;4989015;28;20185;-68
2023/09/18 07:45:11;;;;;;;5.05;1.30;;;;;;;19.42;100.00;100188.91;4987399;28;20034;-68
2023/09/18 07:47:37;;;;;;;4.95;1.45;;;;;;;19.47;100.00;100194.31;4988043;28;20041;-68
2023/09/18 07:50:02;;;;;;;9.52;1.60;;;;;;;19.49;100.00;100200.13;4988153;28;20034;-68
2023/09/18 07:52:30;;;;;;;9.13;1.50;;;;;;;19.51;100.00;100190.19;5002458;28;20650;-69
2023/09/18 07:54:55;;;;;;;7.28;1.50;;;;;;;19.56;100.00;100189.50;5006546;28;20069;-68
2023/09/18 07:57:22;;;;;;;3.53;1.50;;;;;;;19.59;100.00;100203.00;4987968;28;20038;-68
2023/09/18 07:59:48;;;;;;;6.05;1.52;;;;;;;19.77;100.00;100191.56;4987215;28;20042;-69
2023/09/18 08:02:14;;;;;;;4.95;1.40;;;;;;;19.68;100.00;100181.59;4985704;28;20046;-68
2023/09/18 08:04:39;;;;;;;6.40;1.45;;;;;;;19.54;100.00;100205.50;4987488;28;20046;-68
2023/09/18 08:07:07;;;;;;;6.10;1.45;;;;;;;19.55;100.00;100201.03;4988747;28;20077;-68
2023/09/18 08:09:36;;;;;;;3.53;1.20;;;;;;;19.58;100.00;100197.97;5005028;28;20028;-68
2023/09/18 08:12:06;;;;;;;4.85;1.38;;;;;;;19.67;100.00;100182.66;4996946;28;20026;-68
2023/09/18 08:14:31;;;;;;;10.27;1.40;;;;;;;19.84;99.92;100194.06;5007139;28;20030;-69
2023/09/18 08:16:58;;;;;;;2.45;1.17;;;;;;;20.18;98.49;100197.63;4989333;28;20034;-68
2023/09/18 08:19:26;;;;;;;3.30;1.48;;;;;;;20.38;98.26;100209.56;4987191;28;20038;-69
2023/09/18 08:22:01;;;;;;;5.55;1.27;;;;;;;20.46;97.69;100211.06;4987767;28;20436;-69
2023/09/18 08:24:27;;;;;;;8.27;2.20;;;;;;;20.64;93.91;100212.72;5001487;28;20523;-69
2023/09/18 08:26:54;;;;;;;4.25;1.58;;;;;;;20.61;92.89;100229.78;4988713;28;20050;-68
2023/09/18 08:29:19;;;;;;;5.10;1.20;;;;;;;20.63;92.07;100230.34;4989260;28;20034;-69
2023/09/18 08:31:45;;;;;;;5.22;1.40;;;;;;;20.48;94.18;100222.94;4986667;28;20088;-68
2023/09/18 08:34:10;;;;;;;4.20;1.48;;;;;;;20.38;93.58;100215.66;4989010;28;20046;-68
2023/09/18 08:36:36;;;;;;;3.25;1.23;;;;;;;20.25;95.27;100231.75;5005866;28;20038;-68
2023/09/18 08:39:03;;;;;;;11.13;5.22;;;;;;;20.32;95.16;100232.38;4986468;28;20066;-68
2023/09/18 08:41:31;;;;;;;6.68;1.80;;;;;;;20.40;94.71;100224.13;4990094;28;20452;-68
2023/09/18 08:44:00;;;;;;;3.92;1.30;;;;;;;20.48;94.03;100217.69;4986046;28;20046;-68
2023/09/18 08:46:26;;;;;;;4.45;1.17;;;;;;;20.52;92.21;100221.44;4986505;28;20131;-68
2023/09/18 08:48:53;;;;;;;5.05;1.25;;;;;;;20.54;90.95;100223.84;4980788;28;20685;-69
2023/09/18 08:51:19;;;;;;;4.85;1.50;;;;;;;20.58;91.34;100228.38;4989265;28;20030;-68
2023/09/18 08:53:45;;;;;;;5.13;1.25;;;;;;;20.69;91.39;100228.63;4986484;28;20038;-69
2023/09/18 08:56:12;;;;;;;4.10;1.25;;;;;;;20.84;90.17;100225.44;4985715;28;20073;-68
2023/09/18 08:58:40;;;;;;;7.93;2.22;;;;;;;20.80;91.49;100239.09;4969311;28;20050;-68
2023/09/18 09:01:09;;;;;;;10.10;1.25;;;;;;;20.83;90.54;100237.00;4985253;28;20034;-68
2023/09/18 09:03:39;;;;;;;5.00;0.98;;;;;;;20.88;89.01;100237.09;4988401;28;20061;-68
2023/09/18 09:06:09;;;;;;;3.20;1.35;;;;;;;20.78;89.75;100240.38;4986938;28;20069;-68
2023/09/18 09:08:35;;;;;;;5.60;1.30;;;;;;;20.73;91.13;100227.09;4985822;28;20117;-68
2023/09/18 09:11:01;;;;;;;4.05;1.77;;;;;;;20.83;88.62;100224.63;4989101;28;20046;-68
2023/09/18 09:13:27;;;;;;;8.05;0.90;;;;;;;20.84;87.72;100220.19;5003268;28;20030;-68
2023/09/18 09:15:58;;;;;;;6.15;1.30;;;;;;;20.83;88.97;100222.00;4998159;28;20653;-68
2023/09/18 09:18:26;;;;;;;4.70;1.30;;;;;;;20.87;90.09;100209.97;4982429;28;20034;-68
2023/09/18 09:20:59;;;;;;;7.65;1.30;;;;;;;20.83;89.53;100205.41;4986193;28;20039;-68
2023/09/18 09:23:29;;;;;;;;;;;;;;;20.91;88.06;100205.81;5000743;28;20054;-68
2023/09/18 09:26:12;;;;;;;3.15;1.35;;;;;;;20.96;87.08;100210.34;4984825;28;20502;-68
2023/09/18 09:28:38;;;;;;;;;;;;;;;20.97;87.97;100218.03;4986148;28;20051;-68
2023/09/18 09:31:04;;;;;;;6.35;1.35;;;;;;;21.12;86.52;100221.94;4985599;28;20020;-68
2023/09/18 09:33:30;;;;;;;3.72;1.10;;;;;;;21.30;88.11;100231.44;4986913;28;20038;-68
2023/09/18 09:35:56;;;;;;;5.95;2.13;;;;;;;21.50;86.98;100228.34;4999459;28;20049;-68
2023/09/18 09:38:31;;;;;;;3.25;1.20;;;;;;;21.59;85.76;100240.09;4985484;28;20432;-68
2023/09/18 09:40:59;;;;;;;3.47;1.48;;;;;;;21.55;84.28;100238.97;4985799;28;20042;-67
2023/09/18 09:43:26;;;;;;;3.47;1.20;;;;;;;21.48;84.43;100233.06;4984178;28;20053;-67
2023/09/18 09:46:01;;;;;;;3.35;1.08;;;;;;;21.70;84.08;100251.56;4986871;28;20121;-67
2023/09/18 09:48:27;;;;;;;5.90;1.00;;;;;;;21.77;84.56;100244.25;4999523;28;20042;-67
2023/09/18 09:50:59;;;;;;;5.55;1.20;;;;;;;21.96;81.26;100240.31;4986979;28;20034;-68
2023/09/18 09:53:48;;;;;;;4.15;1.30;;;;;;;21.86;82.07;100236.75;4986260;28;20508;-67
2023/09/18 09:56:14;;;;;;;4.18;1.30;;;;;;;21.90;81.21;100237.84;4987314;28;21563;-67
2023/09/18 09:58:43;;;;;;;4.13;1.20;;;;;;;22.16;82.12;100228.41;4986980;28;20038;-67
2023/09/18 10:01:17;;;;;;;5.18;1.50;;;;;;;22.55;79.67;100213.25;4985849;28;20792;-67
2023/09/18 10:03:43;;;;;;;4.03;1.25;;;;;;;22.87;80.16;100217.78;4989763;28;21063;-67
2023/09/18 10:06:10;;;;;;;4.43;1.90;;;;;;;22.81;76.63;100210.03;4985319;28;20032;-67
2023/09/18 10:08:38;;;;;;;3.47;1.30;;;;;;;23.09;77.58;100219.56;4985474;28;20038;-67
2023/09/18 10:11:12;;;;;;;7.90;1.58;;;;;;;23.17;77.35;100223.56;4986566;28;20073;-67
2023/09/18 10:13:53;;;;;;;4.70;1.73;;;;;;;23.33;75.97;100223.41;5000351;28;20054;-68
2023/09/18 10:16:21;;;;;;;4.03;1.30;;;;;;;23.45;74.69;100223.25;4971826;28;20046;-67
2023/09/18 10:19:14;;;;;;;11.23;2.20;;;;;;;23.54;74.67;100223.56;4978576;28;20468;-67
2023/09/18 10:22:00;;;;;;;2.90;1.40;;;;;;;23.49;73.64;100215.59;4976607;28;20042;-68
2023/09/18 10:24:31;;;;;;;33.53;3.38;;;;;;;23.47;72.77;100210.56;4984758;28;20077;-68
2023/09/18 10:26:59;;;;;;;6.85;1.50;;;;;;;23.58;73.09;100211.41;4992213;28;20022;-67
2023/09/18 10:29:26;;;;;;;3.15;1.58;;;;;;;23.65;70.43;100211.19;4999530;28;20058;-68
2023/09/18 10:31:53;;;;;;;6.75;2.20;;;;;;;23.49;70.04;100202.38;4988083;28;20034;-68
2023/09/18 10:34:20;;;;;;;5.53;1.63;;;;;;;23.58;69.92;100216.69;4984701;28;20451;-69
2023/09/18 10:36:48;;;;;;;4.13;1.33;;;;;;;23.70;70.99;100213.84;4985496;28;20036;-67
2023/09/18 10:39:19;;;;;;;6.10;1.70;;;;;;;23.95;70.18;100223.00;4996335;28;20054;-68
2023/09/18 10:41:50;;;;;;;4.78;1.50;;;;;;;24.08;71.50;100215.34;4982597;28;20042;-68
2023/09/18 10:44:19;;;;;;;2.92;1.50;;;;;;;24.13;68.43;100206.66;4988286;28;20045;-68
2023/09/18 10:46:46;;;;;;;3.63;1.33;;;;;;;24.19;66.47;100207.47;4985827;28;20073;-68
2023/09/18 10:49:11;;;;;;;5.10;1.50;;;;;;;24.09;68.58;100216.16;4986521;28;20088;-67
2023/09/18 10:51:42;;;;;;;2.40;1.55;;;;;;;24.18;66.18;100217.22;4985251;28;20041;-68
2023/09/18 10:54:14;;;;;;;6.80;1.20;;;;;;;24.20;68.90;100219.63;4985219;28;20520;-68
2023/09/18 10:56:43;;;;;;;3.25;1.48;;;;;;;24.37;66.81;100233.44;4998946;28;20046;-67
2023/09/18 10:59:10;;;;;;;5.22;1.80;;;;;;;24.37;68.49;100224.72;4986895;28;20408;-68
2023/09/18 11:01:36;;;;;;;6.80;1.85;;;;;;;24.59;66.70;100221.88;4987767;28;20054;-68
2023/09/18 11:04:06;;;;;;;4.00;1.50;;;;;;;24.28;66.59;100229.75;4983252;28;20049;-68
2023/09/18 11:06:54;;;;;;;3.53;1.73;;;;;;;24.18;68.22;100237.63;4999835;28;20125;-68
2023/09/18 11:09:22;;;;;;;7.38;2.00;;;;;;;24.21;67.95;100226.53;4996304;28;20349;-68
2023/09/18 11:11:57;;;;;;;3.38;1.50;;;;;;;24.13;68.43;100232.31;4973588;28;20036;-68
2023/09/18 11:15:00;;;;;;;4.43;1.45;;;;;;;24.27;70.71;100239.50;4987947;28;20467;-67
2023/09/18 11:17:33;;;;;;;5.93;1.42;;;;;;;24.44;70.58;100244.59;4985339;28;20711;-68